Time;durP1;ratioP1;P1;durP2;ratioP2;P2;SDS_P1;SDS_P2;PMS_P1;PMS_P2;Temp;Humidity;BMP_temperature;BMP_pressure;BME280_temperature;BME280_humidity;BME280_pressure;Samples;Min_cycle;Max_cycle;Signal;HPM_P1;HPM_P2
2022/11/04 00:01:43;;;;;;;1.58;1.25;;;;;;;10.40;100.00;97534.41;4134944;28;20236;-46
2022/11/04 00:03:48;;;;;;;1.20;1.13;;;;;;;10.38;100.00;97533.88;4151918;28;20334;-46
2022/11/04 00:05:50;;;;;;;1.00;1.00;;;;;;;10.36;100.00;97534.16;4137211;28;20205;-46
2022/11/04 00:10:11;;;;;;;1.10;1.10;;;;;;;10.35;100.00;97537.19;4150649;28;20217;-47
2022/11/04 00:12:25;;;;;;;1.52;1.42;;;;;;;10.35;100.00;97545.38;4139896;28;20259;-47
2022/11/04 00:14:28;;;;;;;0.70;0.70;;;;;;;10.37;100.00;97545.91;4155639;28;20515;-46
2022/11/04 00:18:50;;;;;;;1.30;1.25;;;;;;;10.29;100.00;97535.53;4157305;28;20227;-46
2022/11/04 00:30:26;;;;;;;1.30;1.30;;;;;;;10.32;100.00;97563.16;4153661;28;20299;-45
2022/11/04 00:34:48;;;;;;;1.05;0.98;;;;;;;10.24;100.00;97566.41;4155769;28;20688;-46
2022/11/04 00:36:50;;;;;;;1.08;0.98;;;;;;;10.27;100.00;97554.13;4150422;28;20550;-46
2022/11/04 00:38:52;;;;;;;8.27;1.65;;;;;;;10.23;100.00;97563.94;4133774;28;20226;-46
2022/11/04 00:40:54;;;;;;;1.65;1.45;;;;;;;10.28;100.00;97569.44;4156637;28;20228;-47
2022/11/04 00:42:55;;;;;;;1.58;1.48;;;;;;;10.23;100.00;97575.72;4139389;28;20388;-46
2022/11/04 00:44:57;;;;;;;1.15;1.10;;;;;;;10.23;100.00;97575.72;4157577;28;20299;-46
2022/11/04 00:46:59;;;;;;;1.08;1.08;;;;;;;10.28;100.00;97580.38;4154162;28;20593;-46
2022/11/04 00:49:00;;;;;;;0.95;0.95;;;;;;;10.28;100.00;97583.09;4142701;28;20212;-46
2022/11/04 00:51:02;;;;;;;1.15;1.08;;;;;;;10.25;100.00;97589.94;4144848;28;20598;-46
2022/11/04 00:53:04;;;;;;;1.30;1.20;;;;;;;10.17;100.00;97595.94;4142012;28;20209;-47
2022/11/04 00:55:06;;;;;;;1.88;1.20;;;;;;;10.13;100.00;97599.44;4141734;28;20607;-46
2022/11/04 00:57:12;;;;;;;1.10;1.05;;;;;;;10.13;100.00;97593.97;4154613;28;20601;-47
2022/11/04 00:59:14;;;;;;;1.35;1.25;;;;;;;10.13;100.00;97585.78;4138280;28;20711;-47
2022/11/04 01:01:17;;;;;;;5.07;1.20;;;;;;;10.05;100.00;97594.50;4140501;28;21598;-47
2022/11/04 01:03:19;;;;;;;1.90;1.23;;;;;;;10.05;100.00;97599.97;4143714;28;20210;-47
2022/11/04 01:05:21;;;;;;;1.17;1.02;;;;;;;10.09;100.00;97612.03;4136247;28;20253;-46
2022/11/04 01:07:22;;;;;;;1.73;1.15;;;;;;;10.06;100.00;97607.09;4135503;28;20197;-47
2022/11/04 01:09:24;;;;;;;1.52;1.38;;;;;;;10.05;100.00;97616.38;4138485;28;20213;-47
2022/11/04 01:11:28;;;;;;;2.50;1.00;;;;;;;10.07;100.00;97614.22;4140360;28;20229;-46
2022/11/04 01:13:30;;;;;;;1.30;1.30;;;;;;;9.99;100.00;97606.47;4123113;28;20305;-46
2022/11/04 01:15:32;;;;;;;1.20;1.20;;;;;;;9.99;100.00;97606.47;4153662;28;20215;-47
2022/11/04 01:17:36;;;;;;;3.22;1.20;;;;;;;10.01;100.00;97609.78;4158488;28;20209;-47
2022/11/04 01:19:38;;;;;;;1.23;1.10;;;;;;;10.02;100.00;97616.91;4140050;28;20699;-46
2022/11/04 01:21:39;;;;;;;2.17;1.27;;;;;;;10.00;100.00;97608.13;4141400;28;20225;-45
2022/11/04 01:23:43;;;;;;;1.48;1.35;;;;;;;9.95;100.00;97599.94;4156722;28;20205;-46
2022/11/04 01:25:45;;;;;;;2.70;1.50;;;;;;;9.99;100.00;97601.84;4140766;28;20212;-45
2022/11/04 01:27:47;;;;;;;1.48;1.38;;;;;;;9.94;100.00;97596.38;4138846;28;20301;-46
2022/11/04 01:29:49;;;;;;;2.40;1.35;;;;;;;9.86;100.00;97602.34;4155414;28;20209;-46
2022/11/04 01:31:50;;;;;;;2.55;1.02;;;;;;;9.88;100.00;97604.81;4158167;28;20697;-48
2022/11/04 01:33:53;;;;;;;6.10;1.23;;;;;;;9.87;100.00;97597.72;4136255;28;20210;-46
2022/11/04 01:35:59;;;;;;;1.13;1.10;;;;;;;9.88;100.00;97599.38;4134952;28;20293;-47
2022/11/04 01:38:00;;;;;;;1.30;1.20;;;;;;;9.88;100.00;97599.38;4155977;28;20204;-45
2022/11/04 01:40:02;;;;;;;5.93;2.15;;;;;;;9.89;100.00;97592.81;4157078;28;20211;-46
2022/11/04 01:42:04;;;;;;;1.45;1.05;;;;;;;9.79;100.00;97590.03;4154816;28;20225;-47
2022/11/04 01:44:40;;;;;;;2.67;1.10;;;;;;;9.73;100.00;97596.56;4152632;28;20317;-46
2022/11/04 01:46:44;;;;;;;1.40;1.30;;;;;;;9.69;100.00;97584.53;4154569;28;20240;-46
2022/11/04 01:48:46;;;;;;;1.20;1.10;;;;;;;9.75;100.00;97588.94;4137484;28;20206;-46
2022/11/04 01:50:49;;;;;;;3.40;1.45;;;;;;;9.73;100.00;97591.09;4137669;28;20300;-46
2022/11/04 01:53:01;;;;;;;1.40;1.30;;;;;;;9.70;100.00;97592.47;4139546;28;20228;-46
2022/11/04 01:55:08;;;;;;;3.28;0.90;;;;;;;9.64;100.00;97595.44;4155706;28;20608;-46
2022/11/04 01:57:14;;;;;;;2.75;1.25;;;;;;;9.70;100.00;97597.09;4139662;28;20209;-46
2022/11/04 01:59:28;;;;;;;1.30;1.20;;;;;;;9.64;100.00;97584.50;4138346;28;20229;-46
2022/11/04 02:01:30;;;;;;;1.75;1.00;;;;;;;9.53;100.00;97596.47;4138216;28;21361;-46
2022/11/04 02:03:35;;;;;;;2.58;0.95;;;;;;;9.58;100.00;97583.66;4134910;28;20206;-46
2022/11/04 02:05:37;;;;;;;2.67;1.48;;;;;;;9.59;100.00;97590.78;4155802;28;20275;-46
2022/11/04 02:07:39;;;;;;;0.95;0.95;;;;;;;9.50;100.00;97603.31;4135697;28;20202;-47
2022/11/04 02:09:41;;;;;;;1.38;1.25;;;;;;;9.54;100.00;97611.78;4139008;28;20292;-46
2022/11/04 02:14:03;;;;;;;1.40;1.30;;;;;;;9.50;100.00;97607.94;4156726;28;20201;-46
2022/11/04 02:16:05;;;;;;;1.20;1.10;;;;;;;9.58;100.00;97604.69;4140566;28;20296;-46
2022/11/04 02:18:18;;;;;;;1.15;1.10;;;;;;;9.52;100.00;97612.03;4141982;28;20201;-46
2022/11/04 02:20:49;;;;;;;4.03;1.20;;;;;;;9.55;100.00;97618.88;4140445;28;20293;-46
2022/11/04 02:23:30;;;;;;;1.10;1.02;;;;;;;9.45;100.00;97618.81;4138439;28;20861;-46
2022/11/04 02:26:05;;;;;;;5.03;0.85;;;;;;;9.45;100.00;97627.00;4134930;28;20494;-47
2022/11/04 02:28:40;;;;;;;0.80;0.80;;;;;;;9.54;100.00;97622.72;4127762;28;20211;-46
2022/11/04 02:31:10;;;;;;;2.88;0.93;;;;;;;9.37;100.00;97622.06;4153610;28;20525;-46
2022/11/04 02:33:20;;;;;;;1.33;1.23;;;;;;;9.34;100.00;97615.22;4092430;28;20302;-45
2022/11/04 02:35:37;;;;;;;1.45;1.02;;;;;;;9.30;100.00;97618.75;4154440;28;20219;-46
2022/11/04 02:38:13;;;;;;;3.55;1.45;;;;;;;9.26;100.00;97612.16;4135149;28;20220;-46
2022/11/04 02:40:26;;;;;;;5.53;1.83;;;;;;;9.35;100.00;97605.13;4146675;28;20215;-47
2022/11/04 02:42:40;;;;;;;1.48;1.38;;;;;;;9.22;100.00;97600.94;4122026;28;20226;-47
2022/11/04 02:44:54;;;;;;;1.98;0.80;;;;;;;9.28;100.00;97610.81;4139451;28;20385;-47
2022/11/04 02:47:09;;;;;;;0.85;0.85;;;;;;;9.19;100.00;97603.38;4153485;28;20201;-45
2022/11/04 02:49:13;;;;;;;0.85;0.85;;;;;;;9.27;100.00;97597.41;4138963;28;20293;-46
2022/11/04 02:51:32;;;;;;;1.30;1.20;;;;;;;9.24;100.00;97593.31;4137332;28;20621;-46
2022/11/04 02:54:32;;;;;;;1.15;1.15;;;;;;;9.18;100.00;97599.00;4140068;28;20977;-47
2022/11/04 02:56:39;;;;;;;0.93;0.90;;;;;;;9.18;100.00;97599.00;4091262;28;20216;-47
2022/11/04 02:58:44;;;;;;;4.03;1.10;;;;;;;9.26;100.00;97595.78;4089644;28;20234;-47
2022/11/04 03:00:46;;;;;;;2.47;1.45;;;;;;;9.06;100.00;97590.19;4093426;28;20577;-48
2022/11/04 03:02:59;;;;;;;6.93;2.45;;;;;;;9.10;100.00;97591.31;4140252;28;20225;-46
2022/11/04 03:05:01;;;;;;;4.78;1.10;;;;;;;9.09;100.00;97595.13;4154213;28;20821;-47
2022/11/04 03:07:06;;;;;;;3.83;0.88;;;;;;;9.14;100.00;97592.44;4140332;28;20300;-47
2022/11/04 03:09:10;;;;;;;1.00;1.00;;;;;;;9.13;100.00;97590.78;4138832;28;20635;-47
2022/11/04 03:11:21;;;;;;;2.97;0.98;;;;;;;9.12;100.00;97583.69;4156832;28;20296;-47
2022/11/04 03:13:30;;;;;;;1.00;0.90;;;;;;;9.07;100.00;97602.75;4139927;28;20209;-46
2022/11/04 03:15:33;;;;;;;1.35;0.95;;;;;;;9.05;100.00;97600.28;4152833;28;20295;-47
2022/11/04 03:17:42;;;;;;;1.08;1.08;;;;;;;9.01;100.00;97598.38;4122524;28;20205;-46
2022/11/04 03:19:52;;;;;;;1.38;1.20;;;;;;;9.01;100.00;97609.28;4122356;28;20225;-47
2022/11/04 03:21:58;;;;;;;2.47;1.63;;;;;;;9.11;100.00;97598.41;4136940;28;20669;-47
2022/11/04 03:24:00;;;;;;;1.80;1.20;;;;;;;9.01;100.00;97592.91;4138950;28;20206;-46
2022/11/04 03:26:21;;;;;;;1.40;1.30;;;;;;;9.07;100.00;97597.28;4154691;28;20228;-46
2022/11/04 03:28:55;;;;;;;1.08;1.08;;;;;;;9.04;100.00;97603.28;4135749;28;20309;-47
2022/11/04 03:31:00;;;;;;;2.13;2.03;;;;;;;9.12;100.00;97610.97;4091005;28;20250;-47
2022/11/04 03:33:17;;;;;;;1.35;1.25;;;;;;;9.02;100.00;97602.72;4131062;28;20237;-46
2022/11/04 03:35:19;;;;;;;1.00;0.90;;;;;;;9.06;100.00;97612.00;4137826;28;20506;-46
2022/11/04 03:37:20;;;;;;;1.27;1.17;;;;;;;9.10;100.00;97608.53;4138589;28;20201;-46
2022/11/04 03:39:22;;;;;;;0.93;0.82;;;;;;;9.13;100.00;97615.34;4133104;28;20698;-46
2022/11/04 03:41:35;;;;;;;1.13;1.08;;;;;;;9.11;100.00;97626.53;4135728;28;20237;-46
2022/11/04 03:43:38;;;;;;;4.45;1.42;;;;;;;9.11;100.00;97626.53;4139760;28;20202;-46
2022/11/04 03:45:41;;;;;;;1.08;1.02;;;;;;;9.10;100.00;97626.78;4124123;28;20216;-46
2022/11/04 03:47:43;;;;;;;2.92;1.33;;;;;;;9.16;100.00;97623.81;4137954;28;20599;-46
2022/11/04 03:49:48;;;;;;;1.40;1.30;;;;;;;9.11;100.00;97628.44;4135727;28;20296;-46
2022/11/04 03:51:50;;;;;;;1.73;1.30;;;;;;;9.17;100.00;97630.13;4119836;28;20236;-47
2022/11/04 03:53:52;;;;;;;2.30;1.20;;;;;;;9.14;100.00;97622.47;4152571;28;20212;-47
2022/11/04 03:56:06;;;;;;;1.58;1.38;;;;;;;9.17;100.00;97624.66;4137979;28;20220;-47
2022/11/04 03:58:33;;;;;;;1.52;1.27;;;;;;;9.10;100.00;97613.97;4137983;28;20675;-48
2022/11/04 04:00:41;;;;;;;2.53;1.73;;;;;;;9.20;100.00;97613.19;4154413;28;20233;-47
2022/11/04 04:02:49;;;;;;;1.55;1.38;;;;;;;9.19;100.00;97600.63;4150968;28;20239;-46
2022/11/04 04:04:56;;;;;;;1.30;1.20;;;;;;;9.17;100.00;97591.91;4136689;28;20817;-46
2022/11/04 04:07:37;;;;;;;4.22;1.52;;;;;;;9.20;100.00;97591.38;4135369;28;20209;-46
2022/11/04 04:09:43;;;;;;;2.00;1.05;;;;;;;9.26;100.00;97595.78;4138239;28;20213;-47
2022/11/04 04:11:54;;;;;;;1.75;1.30;;;;;;;9.25;100.00;97599.59;4154750;28;20267;-47
2022/11/04 04:16:57;;;;;;;0.80;0.80;;;;;;;9.24;100.00;97581.56;4106882;28;20203;-47
2022/11/04 04:19:25;;;;;;;1.67;1.45;;;;;;;9.18;100.00;97578.00;4101234;28;20285;-46
2022/11/04 04:21:37;;;;;;;1.27;1.17;;;;;;;9.13;100.00;97579.84;4155402;28;20764;-46
2022/11/04 04:28:23;;;;;;;3.35;1.58;;;;;;;9.23;100.00;97577.19;4155330;28;20193;-46
2022/11/04 04:30:25;;;;;;;1.30;1.20;;;;;;;9.23;100.00;97571.75;4136699;28;20544;-47
2022/11/04 04:32:29;;;;;;;1.85;1.75;;;;;;;9.22;100.00;97581.81;4137578;28;20264;-46
2022/11/04 04:34:31;;;;;;;1.92;1.17;;;;;;;9.25;100.00;97585.94;4122400;28;20699;-48
2022/11/04 04:36:39;;;;;;;4.55;1.70;;;;;;;9.19;100.00;97584.25;4138572;28;20208;-47
2022/11/04 04:46:05;;;;;;;1.98;1.40;;;;;;;9.19;100.00;97578.81;4141790;28;20205;-46
2022/11/04 04:48:08;;;;;;;1.17;1.15;;;;;;;9.26;100.00;97580.22;4139505;28;20601;-48
2022/11/04 04:50:13;;;;;;;1.08;1.05;;;;;;;9.23;100.00;97588.13;4139163;28;20233;-46
2022/11/04 04:52:15;;;;;;;1.60;1.50;;;;;;;9.23;100.00;97586.19;4140156;28;20639;-46
2022/11/04 04:54:17;;;;;;;2.47;1.23;;;;;;;9.29;100.00;97589.81;4137792;28;20212;-46
2022/11/04 04:56:18;;;;;;;1.75;1.48;;;;;;;9.21;100.00;97590.31;4138663;28;20212;-46
2022/11/04 04:58:20;;;;;;;1.38;1.33;;;;;;;9.27;100.00;97591.94;4155220;28;20219;-47
2022/11/04 05:00:22;;;;;;;2.28;1.38;;;;;;;9.16;100.00;97601.19;4156298;28;20580;-46
2022/11/04 05:02:23;;;;;;;1.48;1.30;;;;;;;9.15;100.00;97594.09;4160599;28;20330;-46
2022/11/04 05:04:25;;;;;;;1.10;1.10;;;;;;;9.14;100.00;97598.72;4168176;28;20616;-46
2022/11/04 05:06:27;;;;;;;1.60;0.95;;;;;;;9.26;100.00;97590.31;4153475;28;20228;-46
2022/11/04 05:08:28;;;;;;;1.75;1.48;;;;;;;9.25;100.00;97583.22;4170612;28;20254;-46
2022/11/04 05:10:30;;;;;;;1.08;1.05;;;;;;;9.28;100.00;97588.16;4140836;28;20225;-46
2022/11/04 05:14:56;;;;;;;1.48;1.00;;;;;;;9.20;100.00;97580.44;4172467;28;20291;-48
2022/11/04 05:16:58;;;;;;;1.27;1.17;;;;;;;9.22;100.00;97586.47;4155739;28;20227;-48
2022/11/04 05:19:00;;;;;;;1.25;1.15;;;;;;;9.10;100.00;97574.94;4170980;28;20283;-46
2022/11/04 05:21:06;;;;;;;1.48;1.48;;;;;;;9.19;100.00;97581.53;4151550;28;20774;-47
2022/11/04 05:23:10;;;;;;;1.67;1.58;;;;;;;9.20;100.00;97585.91;4151929;28;20208;-46
2022/11/04 05:25:12;;;;;;;2.22;2.13;;;;;;;9.15;100.00;97588.63;4154990;28;20212;-47
2022/11/04 05:27:14;;;;;;;1.13;1.08;;;;;;;9.12;100.00;97597.31;4156050;28;20601;-47
2022/11/04 05:29:16;;;;;;;2.20;1.40;;;;;;;9.13;100.00;97593.50;4171560;28;20218;-48
2022/11/04 05:31:17;;;;;;;1.45;1.00;;;;;;;9.12;100.00;97589.13;4169907;28;20625;-46
2022/11/04 05:33:19;;;;;;;1.13;1.10;;;;;;;9.12;100.00;97583.69;4171251;28;20254;-46
2022/11/04 05:35:21;;;;;;;1.38;1.35;;;;;;;9.10;100.00;97586.69;4156267;28;20308;-47
2022/11/04 05:37:23;;;;;;;1.38;1.27;;;;;;;9.15;100.00;97583.97;4151423;28;20765;-47
2022/11/04 05:39:24;;;;;;;2.95;1.27;;;;;;;9.19;100.00;97578.81;4156118;28;20205;-45
2022/11/04 05:41:29;;;;;;;1.10;1.00;;;;;;;9.18;100.00;97575.28;4171806;28;20251;-47
2022/11/04 05:43:31;;;;;;;2.20;1.00;;;;;;;9.20;100.00;97566.81;4154102;28;20316;-46
2022/11/04 05:45:33;;;;;;;1.13;1.10;;;;;;;9.18;100.00;97566.25;4169602;28;20213;-46
2022/11/04 05:47:34;;;;;;;1.23;0.73;;;;;;;9.23;100.00;97560.81;4169463;28;20212;-48
2022/11/04 05:49:36;;;;;;;1.25;1.25;;;;;;;9.21;100.00;97565.75;4155220;28;20205;-46
2022/11/04 05:51:38;;;;;;;1.25;1.15;;;;;;;9.22;100.00;97556.47;4171980;28;20894;-47
2022/11/04 05:53:40;;;;;;;1.02;1.02;;;;;;;9.23;100.00;97558.91;4154847;28;20196;-47
2022/11/04 05:55:42;;;;;;;5.82;1.10;;;;;;;9.32;100.00;97561.97;4158314;28;20236;-46
2022/11/04 05:57:43;;;;;;;1.35;1.25;;;;;;;9.17;100.00;97551.81;4151930;28;20593;-47
2022/11/04 05:59:45;;;;;;;0.60;0.60;;;;;;;9.16;100.00;97552.88;4168732;28;20231;-46
2022/11/04 06:01:48;;;;;;;1.15;1.15;;;;;;;9.10;100.00;97547.66;4149382;28;20321;-47
2022/11/04 06:03:51;;;;;;;2.95;1.98;;;;;;;9.05;100.00;97544.88;4152118;28;20212;-48
2022/11/04 06:05:53;;;;;;;1.60;1.48;;;;;;;9.08;100.00;97544.38;4151096;28;20200;-46
2022/11/04 06:07:55;;;;;;;1.02;0.95;;;;;;;9.06;100.00;97543.81;4173310;28;20303;-47
2022/11/04 06:09:57;;;;;;;0.95;0.95;;;;;;;9.05;100.00;97544.88;4154479;28;20213;-46
2022/11/04 06:11:58;;;;;;;1.27;1.23;;;;;;;9.05;100.00;97556.63;4150793;28;20232;-46
2022/11/04 06:14:00;;;;;;;1.65;1.20;;;;;;;9.05;100.00;97561.25;4169668;28;20246;-48
2022/11/04 06:16:02;;;;;;;0.77;0.77;;;;;;;9.07;100.00;97561.81;4168991;28;20294;-46
2022/11/04 06:18:06;;;;;;;1.45;1.02;;;;;;;9.06;100.00;97562.91;4167340;28;20210;-48
2022/11/04 06:20:09;;;;;;;3.85;1.33;;;;;;;9.02;100.00;97570.78;4166411;28;20472;-47
2022/11/04 06:22:12;;;;;;;1.05;1.00;;;;;;;9.02;100.00;97575.44;4170159;28;20225;-46
2022/11/04 06:24:14;;;;;;;2.22;1.80;;;;;;;9.07;100.00;97562.66;4150667;28;20367;-46
2022/11/04 06:26:16;;;;;;;1.00;1.00;;;;;;;9.06;100.00;97571.09;4148378;28;20283;-46
2022/11/04 06:28:18;;;;;;;1.98;1.88;;;;;;;9.06;100.00;97573.81;4169938;28;20307;-47
2022/11/04 06:30:20;;;;;;;1.50;1.40;;;;;;;9.03;100.00;97569.69;4154652;28;20440;-46
2022/11/04 06:32:22;;;;;;;2.03;1.48;;;;;;;9.10;100.00;97574.94;4154264;28;20713;-47
2022/11/04 06:34:24;;;;;;;1.20;1.20;;;;;;;9.10;100.00;97570.31;4174153;28;20715;-46
2022/11/04 06:36:25;;;;;;;0.90;0.90;;;;;;;9.05;100.00;97572.16;4170199;28;20655;-46
2022/11/04 06:38:30;;;;;;;2.35;1.63;;;;;;;9.07;100.00;97578.19;4152916;28;20236;-46
2022/11/04 06:40:31;;;;;;;1.23;1.00;;;;;;;9.06;100.00;97573.81;4150914;28;20637;-46
2022/11/04 06:42:33;;;;;;;3.20;1.30;;;;;;;9.05;100.00;97572.16;4134826;28;20233;-48
2022/11/04 06:44:35;;;;;;;3.10;0.90;;;;;;;9.05;100.00;97573.00;4148032;28;20216;-47
2022/11/04 06:46:41;;;;;;;4.38;1.15;;;;;;;9.07;100.00;97570.84;4149216;28;20225;-46
2022/11/04 06:48:43;;;;;;;8.52;1.20;;;;;;;9.11;100.00;97571.13;4152126;28;20207;-47
2022/11/04 06:50:44;;;;;;;0.95;0.93;;;;;;;9.13;100.00;97574.41;4138477;28;20294;-46
2022/11/04 06:52:46;;;;;;;2.78;1.13;;;;;;;9.09;100.00;97579.56;4169091;28;20308;-46
2022/11/04 06:54:48;;;;;;;1.58;1.58;;;;;;;9.09;100.00;97585.03;4154239;28;20241;-48
2022/11/04 06:56:49;;;;;;;1.55;1.45;;;;;;;9.09;100.00;97584.22;4166851;28;20258;-47
2022/11/04 06:58:52;;;;;;;1.88;1.77;;;;;;;9.10;100.00;97580.41;4153630;28;20204;-47
2022/11/04 07:00:54;;;;;;;1.88;1.13;;;;;;;9.11;100.00;97582.88;4168262;28;20334;-48
2022/11/04 07:02:56;;;;;;;1.95;1.17;;;;;;;9.23;100.00;97588.13;4153773;28;20680;-47
2022/11/04 07:04:58;;;;;;;2.83;1.00;;;;;;;9.13;100.00;97593.50;4170349;28;20737;-47
2022/11/04 07:06:59;;;;;;;1.20;1.10;;;;;;;9.15;100.00;97585.91;4167380;28;20913;-46
2022/11/04 07:09:02;;;;;;;1.05;1.05;;;;;;;9.15;100.00;97583.16;4153353;28;20311;-46
2022/11/04 07:11:04;;;;;;;0.88;0.88;;;;;;;9.22;100.00;97594.66;4150720;28;20205;-47
2022/11/04 07:13:05;;;;;;;1.27;1.10;;;;;;;9.21;100.00;97593.03;4153181;28;20296;-46
2022/11/04 07:15:08;;;;;;;1.67;1.10;;;;;;;9.28;100.00;97599.06;4148196;28;20209;-46
2022/11/04 07:17:11;;;;;;;1.10;0.90;;;;;;;9.26;100.00;97595.78;4135780;28;20296;-46
2022/11/04 07:19:12;;;;;;;1.10;1.00;;;;;;;9.24;100.00;97592.50;4151609;28;21698;-47
2022/11/04 07:21:14;;;;;;;0.80;0.80;;;;;;;9.30;100.00;97596.91;4153484;28;20633;-48
2022/11/04 07:23:16;;;;;;;1.60;1.33;;;;;;;9.21;100.00;97598.50;4169826;28;21191;-47
2022/11/04 07:25:18;;;;;;;1.55;1.38;;;;;;;9.31;100.00;97606.72;4165522;28;20642;-47
2022/11/04 07:27:20;;;;;;;2.22;1.02;;;;;;;9.31;100.00;97620.38;4150347;28;20276;-48
2022/11/04 07:29:21;;;;;;;2.05;1.17;;;;;;;9.36;100.00;97623.16;4164472;28;20235;-46
2022/11/04 07:31:27;;;;;;;1.00;1.00;;;;;;;9.40;100.00;97627.81;4166346;28;20246;-46
2022/11/04 07:33:29;;;;;;;1.85;1.02;;;;;;;9.30;100.00;97621.47;4136340;28;20245;-47
2022/11/04 07:35:31;;;;;;;1.20;1.20;;;;;;;9.30;100.00;97629.66;4169797;28;20218;-47
2022/11/04 07:37:33;;;;;;;3.10;1.20;;;;;;;9.34;100.00;97633.50;4149655;28;20248;-47
2022/11/04 07:39:34;;;;;;;2.75;1.00;;;;;;;9.35;100.00;97632.44;4173099;28;20936;-48
2022/11/04 07:41:36;;;;;;;4.13;2.28;;;;;;;9.31;100.00;97634.03;4152016;28;20239;-47
2022/11/04 07:43:38;;;;;;;6.80;1.38;;;;;;;9.36;100.00;97639.53;4170494;28;20922;-46
2022/11/04 07:45:40;;;;;;;1.58;0.95;;;;;;;9.32;100.00;97638.38;4154507;28;20207;-46
2022/11/04 07:47:48;;;;;;;1.10;0.98;;;;;;;9.37;100.00;97641.16;4152902;28;20682;-46
2022/11/04 07:49:50;;;;;;;2.22;0.80;;;;;;;9.36;100.00;97634.88;4154819;28;20197;-46
2022/11/04 07:51:52;;;;;;;1.65;0.90;;;;;;;9.50;100.00;97643.44;4155086;28;20274;-47
2022/11/04 07:53:54;;;;;;;3.50;0.93;;;;;;;9.52;100.00;97638.50;4170275;28;20705;-46
2022/11/04 07:55:56;;;;;;;3.40;1.55;;;;;;;9.52;100.00;97627.59;4152460;28;20232;-46
2022/11/04 07:57:58;;;;;;;2.42;1.05;;;;;;;9.53;100.00;97626.50;4156166;28;20232;-47
2022/11/04 08:00:00;;;;;;;9.70;1.50;;;;;;;9.52;100.00;97627.59;4154490;28;20267;-47
2022/11/04 08:02:02;;;;;;;1.40;1.10;;;;;;;9.50;100.00;97632.50;4169205;28;20307;-46
2022/11/04 08:04:05;;;;;;;3.45;1.30;;;;;;;9.49;100.00;97622.66;4154809;28;20646;-46
2022/11/04 08:06:09;;;;;;;4.25;1.10;;;;;;;9.57;100.00;97620.28;4170685;28;20196;-46
2022/11/04 08:08:11;;;;;;;1.30;1.25;;;;;;;9.58;100.00;97615.59;4154487;28;20201;-46
2022/11/04 08:10:13;;;;;;;1.85;1.08;;;;;;;9.63;100.00;97621.09;4169872;28;20255;-47
2022/11/04 08:12:14;;;;;;;2.53;0.80;;;;;;;9.65;100.00;97621.66;4170259;28;20227;-47
2022/11/04 08:14:16;;;;;;;1.40;1.40;;;;;;;9.72;100.00;97611.31;4171765;28;20755;-47
2022/11/04 08:16:20;;;;;;;2.03;1.02;;;;;;;9.66;100.00;97613.19;4156892;28;20294;-48
2022/11/04 08:18:22;;;;;;;1.27;1.25;;;;;;;9.65;100.00;97621.66;4173088;28;20211;-46
2022/11/04 08:20:24;;;;;;;2.38;1.20;;;;;;;9.64;100.00;97611.81;4153512;28;20248;-46
2022/11/04 08:22:26;;;;;;;1.90;1.20;;;;;;;9.76;100.00;97615.16;4154761;28;20235;-45
2022/11/04 08:24:34;;;;;;;1.30;1.08;;;;;;;9.66;100.00;97612.38;4154578;28;20711;-46
2022/11/04 08:26:36;;;;;;;3.42;2.25;;;;;;;9.60;100.00;97610.69;4151328;28;20215;-46
2022/11/04 08:28:37;;;;;;;1.33;1.23;;;;;;;9.61;100.00;97615.09;4171793;28;20215;-46
2022/11/04 08:30:39;;;;;;;1.17;0.95;;;;;;;9.63;100.00;97612.91;4156862;28;20208;-46
2022/11/04 08:32:41;;;;;;;5.38;1.38;;;;;;;9.66;100.00;97618.66;4150496;28;20252;-46
2022/11/04 08:34:42;;;;;;;1.88;1.10;;;;;;;9.63;100.00;97613.72;4163381;28;20254;-46
2022/11/04 08:36:44;;;;;;;1.48;1.17;;;;;;;9.67;100.00;97603.91;4167162;28;20205;-46
2022/11/04 08:38:46;;;;;;;1.45;1.33;;;;;;;9.77;100.00;97609.44;4166088;28;20212;-47
2022/11/04 08:40:48;;;;;;;8.63;1.00;;;;;;;9.75;100.00;97606.13;4166250;28;20220;-46
2022/11/04 08:42:50;;;;;;;1.48;1.30;;;;;;;9.80;100.00;97602.59;4163228;28;20587;-47
2022/11/04 08:44:51;;;;;;;1.30;1.30;;;;;;;9.86;100.00;97607.81;4139199;28;20258;-47
2022/11/04 08:46:53;;;;;;;1.52;0.90;;;;;;;9.80;100.00;97608.88;4153945;28;20201;-46
2022/11/04 08:48:55;;;;;;;1.60;1.10;;;;;;;9.78;100.00;97607.50;4152693;28;20208;-47
2022/11/04 08:51:00;;;;;;;2.90;1.30;;;;;;;9.87;100.00;97611.38;4137168;28;20288;-47
2022/11/04 08:53:03;;;;;;;2.65;0.90;;;;;;;9.98;100.00;97607.56;4153482;28;20304;-47
2022/11/04 08:55:05;;;;;;;2.40;1.10;;;;;;;10.08;100.00;97607.66;4149340;28;20203;-47
2022/11/04 08:57:08;;;;;;;1.27;1.08;;;;;;;10.09;100.00;97612.84;4169923;28;20242;-47
2022/11/04 08:59:10;;;;;;;1.95;1.00;;;;;;;9.96;100.00;97607.84;4167412;28;20200;-48
2022/11/04 09:01:13;;;;;;;2.20;0.90;;;;;;;9.92;100.00;97603.19;4155977;28;20240;-48
2022/11/04 09:03:15;;;;;;;0.90;0.90;;;;;;;9.94;100.00;97609.22;4153813;28;20213;-47
2022/11/04 09:05:17;;;;;;;1.65;1.10;;;;;;;9.90;100.00;97602.63;4155918;28;20237;-47
2022/11/04 09:07:19;;;;;;;0.85;0.70;;;;;;;9.91;100.00;97596.09;4173840;28;20239;-47
2022/11/04 09:09:21;;;;;;;8.45;0.93;;;;;;;10.03;100.00;97591.22;4156399;28;20235;-46
2022/11/04 09:11:37;;;;;;;2.25;1.08;;;;;;;9.98;100.00;97591.19;4170959;28;20246;-46
2022/11/04 09:13:39;;;;;;;1.05;1.00;;;;;;;9.96;100.00;97596.09;4140273;28;20241;-47
2022/11/04 09:15:41;;;;;;;1.40;1.30;;;;;;;9.95;100.00;97589.00;4156332;28;20574;-47
2022/11/04 09:17:43;;;;;;;1.38;1.10;;;;;;;9.96;100.00;97596.91;4158022;28;20208;-48
2022/11/04 09:19:45;;;;;;;1.02;1.02;;;;;;;10.11;100.00;97594.28;4157316;28;20205;-48
2022/11/04 09:21:46;;;;;;;5.40;2.05;;;;;;;10.12;100.00;97598.66;4173408;28;20224;-47
2022/11/04 09:23:48;;;;;;;1.60;1.45;;;;;;;10.19;100.00;97601.09;4139360;28;20205;-47
2022/11/04 09:25:50;;;;;;;1.33;1.17;;;;;;;10.07;100.00;97597.81;4155038;28;20646;-47
2022/11/04 09:27:52;;;;;;;1.67;0.93;;;;;;;10.12;100.00;97600.53;4139968;28;20300;-47
2022/11/04 09:29:54;;;;;;;3.30;1.88;;;;;;;10.23;100.00;97607.69;4152379;28;20774;-47
2022/11/04 09:31:55;;;;;;;2.42;1.48;;;;;;;10.25;100.00;97600.88;4136267;28;20229;-47
2022/11/04 09:33:58;;;;;;;1.48;0.85;;;;;;;10.31;100.00;97609.88;4157310;28;20211;-48
2022/11/04 09:35:59;;;;;;;1.60;1.45;;;;;;;10.38;100.00;97614.00;4175047;28;20302;-47
2022/11/04 09:38:01;;;;;;;1.25;1.15;;;;;;;10.34;100.00;97617.56;4177720;28;20291;-47
2022/11/04 09:40:03;;;;;;;1.38;0.82;;;;;;;10.44;100.00;97620.31;4173156;28;20211;-47
2022/11/04 09:42:27;;;;;;;2.58;1.42;;;;;;;10.42;100.00;97617.84;4171401;28;20766;-48
2022/11/04 09:44:38;;;;;;;1.02;1.00;;;;;;;10.47;100.00;97619.78;4169759;28;21049;-47
2022/11/04 09:47:02;;;;;;;1.63;1.10;;;;;;;10.50;100.00;97619.22;4171674;28;20704;-47
2022/11/04 09:49:07;;;;;;;3.65;1.95;;;;;;;10.53;100.00;97635.09;4173271;28;20620;-48
2022/11/04 09:51:08;;;;;;;3.50;2.35;;;;;;;10.59;100.00;97629.34;4154190;28;20193;-47
2022/11/04 09:53:50;;;;;;;4.30;1.20;;;;;;;10.63;100.00;97637.84;4159144;28;20212;-47
2022/11/04 09:56:27;;;;;;;1.75;1.45;;;;;;;10.55;100.00;97635.66;4167456;28;20636;-48
2022/11/04 09:58:33;;;;;;;2.15;1.42;;;;;;;10.54;100.00;97642.22;4146635;28;20219;-47
2022/11/04 10:00:36;;;;;;;2.38;1.50;;;;;;;10.58;100.00;97643.31;4154644;28;20728;-47
2022/11/04 10:02:59;;;;;;;1.17;1.08;;;;;;;10.66;100.00;97646.31;4151434;28;20220;-47
2022/11/04 10:05:26;;;;;;;2.58;1.33;;;;;;;10.71;100.00;97653.72;4169894;28;20290;-47
2022/11/04 10:07:30;;;;;;;1.08;0.98;;;;;;;10.62;100.00;97650.69;4152827;28;20214;-47
2022/11/04 10:09:41;;;;;;;1.75;1.10;;;;;;;10.64;100.00;97647.69;4168152;28;20238;-48
2022/11/04 10:11:59;;;;;;;1.40;1.10;;;;;;;10.67;100.00;97653.44;4170707;28;20283;-47
2022/11/04 10:14:09;;;;;;;0.93;0.80;;;;;;;10.82;100.00;97655.38;4155079;28;20255;-48
2022/11/04 10:16:17;;;;;;;0.65;0.65;;;;;;;10.67;100.00;97655.38;4152281;28;20243;-47
2022/11/04 10:18:39;;;;;;;3.67;1.15;;;;;;;10.76;100.00;97651.00;4156996;28;20214;-47
2022/11/04 10:20:56;;;;;;;1.08;1.08;;;;;;;10.78;100.00;97661.38;4169439;28;20211;-49
2022/11/04 10:23:04;;;;;;;0.68;0.68;;;;;;;10.60;100.00;97652.88;4153467;28;20621;-47
2022/11/04 10:25:24;;;;;;;6.13;0.85;;;;;;;10.55;100.00;97649.31;4153031;28;20299;-47
2022/11/04 10:27:29;;;;;;;1.67;1.38;;;;;;;10.60;100.00;97658.34;4155961;28;20201;-47